createdAt,value
2022-11-01T00:01:41.551Z,99.90
2022-11-01T00:04:09.085Z,99.90
2022-11-01T00:06:36.951Z,99.90
2022-11-01T00:09:04.756Z,99.90
2022-11-01T00:11:31.658Z,99.90
2022-11-01T00:13:58.712Z,99.90
2022-11-01T00:16:25.909Z,99.90
2022-11-01T00:18:52.815Z,99.90
2022-11-01T00:21:20.541Z,99.90
2022-11-01T00:23:48.064Z,99.90
2022-11-01T00:26:21.149Z,99.90
2022-11-01T00:28:48.917Z,99.90
2022-11-01T00:31:17.894Z,99.90
2022-11-01T00:33:45.233Z,99.90
2022-11-01T00:36:12.534Z,99.90
2022-11-01T00:38:39.719Z,99.90
2022-11-01T00:41:06.890Z,99.90
2022-11-01T00:43:35.619Z,99.90
2022-11-01T00:46:02.964Z,99.90
2022-11-01T00:48:29.958Z,99.90
2022-11-01T00:50:56.953Z,99.90
2022-11-01T00:53:23.974Z,99.90
2022-11-01T00:55:51.081Z,99.90
2022-11-01T00:58:18.376Z,99.90
2022-11-01T01:00:45.408Z,99.90
2022-11-01T01:03:12.461Z,99.90
2022-11-01T01:05:39.429Z,99.90
2022-11-01T01:08:06.422Z,99.90
2022-11-01T01:10:33.628Z,99.90
2022-11-01T01:13:00.821Z,99.90
2022-11-01T01:15:28.129Z,99.90
2022-11-01T01:17:55.196Z,99.90
2022-11-01T01:20:23.247Z,99.90
2022-11-01T01:22:50.229Z,99.90
2022-11-01T01:25:17.863Z,99.90
2022-11-01T01:27:44.908Z,99.90
2022-11-01T01:30:12.283Z,99.90
2022-11-01T01:32:39.230Z,99.90
2022-11-01T01:35:09.790Z,99.90
2022-11-01T01:37:37.034Z,99.90
2022-11-01T01:40:05.575Z,99.90
2022-11-01T01:42:37.852Z,99.90
2022-11-01T01:45:04.835Z,99.90
2022-11-01T01:47:40.635Z,99.90
2022-11-01T01:50:12.101Z,99.90
2022-11-01T01:52:45.344Z,99.90
2022-11-01T01:55:15.161Z,99.90
2022-11-01T01:57:42.869Z,99.90
2022-11-01T02:00:10.465Z,99.90
2022-11-01T02:02:38.006Z,99.90
2022-11-01T02:05:15.233Z,99.90
2022-11-01T02:07:43.300Z,99.90
2022-11-01T02:10:14.552Z,99.90
2022-11-01T02:12:47.216Z,99.90
2022-11-01T02:15:16.127Z,99.90
2022-11-01T02:17:56.922Z,99.90
2022-11-01T02:20:43.349Z,99.90
2022-11-01T02:23:40.117Z,99.90
2022-11-01T02:26:37.627Z,99.90
2022-11-01T02:29:36.693Z,99.90
2022-11-01T02:32:14.480Z,99.90
2022-11-01T02:34:58.688Z,99.90
2022-11-01T02:37:28.642Z,99.90
2022-11-01T02:40:11.602Z,99.90
2022-11-01T02:42:55.669Z,99.90
2022-11-01T02:45:31.577Z,99.90
2022-11-01T02:48:00.133Z,99.90
2022-11-01T02:50:30.551Z,99.90
2022-11-01T02:52:58.890Z,99.90
2022-11-01T02:55:31.859Z,99.90
2022-11-01T02:58:14.906Z,99.90
2022-11-01T03:00:43.050Z,99.90
2022-11-01T03:03:27.702Z,99.90
2022-11-01T03:06:00.645Z,99.90
2022-11-01T03:08:36.856Z,99.90
2022-11-01T03:11:12.640Z,99.90
2022-11-01T03:14:05.108Z,99.90
2022-11-01T03:16:53.234Z,99.90
2022-11-01T03:19:43.298Z,99.90
2022-11-01T03:22:28.941Z,99.90
2022-11-01T03:25:30.293Z,99.90
2022-11-01T03:28:00.175Z,99.90
2022-11-01T03:30:29.879Z,99.90
2022-11-01T03:32:58.590Z,99.90
2022-11-01T03:35:29.805Z,99.90
2022-11-01T03:38:01.889Z,99.90
2022-11-01T03:40:31.117Z,99.90
2022-11-01T03:43:12.315Z,99.90
2022-11-01T03:45:41.163Z,99.90
2022-11-01T03:48:08.289Z,99.90
2022-11-01T03:50:35.453Z,99.90
2022-11-01T03:53:02.489Z,99.90
2022-11-01T03:55:29.455Z,99.90
2022-11-01T03:58:00.523Z,99.90
2022-11-01T04:00:34.731Z,99.90
2022-11-01T04:03:01.861Z,99.90
2022-11-01T04:05:30.743Z,99.90
2022-11-01T04:07:57.969Z,99.90
2022-11-01T04:10:26.324Z,99.90
2022-11-01T04:12:53.751Z,99.90
2022-11-01T04:15:40.659Z,99.90
2022-11-01T04:21:21.571Z,99.90
2022-11-01T04:23:48.826Z,99.90
2022-11-01T04:26:18.262Z,99.90
2022-11-01T04:28:57.119Z,99.90
2022-11-01T04:31:27.248Z,99.90
2022-11-01T04:33:54.997Z,99.90
2022-11-01T04:36:22.614Z,99.90
2022-11-01T04:38:51.885Z,99.90
2022-11-01T04:41:19.728Z,99.90
2022-11-01T04:43:49.949Z,99.90
2022-11-01T04:46:16.895Z,99.90
2022-11-01T04:48:43.828Z,99.90
2022-11-01T04:51:11.538Z,99.90
2022-11-01T04:53:39.329Z,99.90
2022-11-01T04:56:09.039Z,99.90
2022-11-01T04:58:41.478Z,99.90
2022-11-01T05:01:12.204Z,99.90
2022-11-01T05:03:39.256Z,99.90
2022-11-01T05:06:06.537Z,99.90
2022-11-01T05:08:33.666Z,99.90
2022-11-01T05:11:00.516Z,99.90
2022-11-01T05:13:27.447Z,99.90
2022-11-01T05:16:17.824Z,99.90
2022-11-01T05:18:43.017Z,99.90
2022-11-01T05:21:09.861Z,99.90
2022-11-01T05:23:36.820Z,99.90
2022-11-01T05:26:03.747Z,99.90
2022-11-01T05:28:30.720Z,99.90
2022-11-01T05:30:58.877Z,99.90
2022-11-01T05:33:25.944Z,99.90
2022-11-01T05:35:52.932Z,99.90
2022-11-01T05:38:20.103Z,99.90
2022-11-01T05:40:47.148Z,99.90
2022-11-01T05:43:14.657Z,99.90
2022-11-01T05:45:41.584Z,99.90
2022-11-01T05:48:09.354Z,99.90
2022-11-01T05:50:36.393Z,99.90
2022-11-01T05:53:10.525Z,99.90
2022-11-01T05:55:38.958Z,99.90
2022-11-01T05:58:06.735Z,99.90
2022-11-01T06:00:34.809Z,99.90
2022-11-01T06:03:02.458Z,99.90
2022-11-01T06:05:30.672Z,99.90
2022-11-01T06:08:00.147Z,99.90
2022-11-01T06:10:27.426Z,99.90
2022-11-01T06:12:55.541Z,99.90
2022-11-01T06:15:22.781Z,99.90
2022-11-01T06:17:55.703Z,99.90
2022-11-01T06:20:22.813Z,99.90
2022-11-01T06:22:49.812Z,99.90
2022-11-01T06:25:16.829Z,99.90
2022-11-01T06:27:43.758Z,99.90
2022-11-01T06:30:11.213Z,99.90
2022-11-01T06:32:38.306Z,99.90
2022-11-01T06:35:05.683Z,99.90
2022-11-01T06:37:32.699Z,99.90
2022-11-01T06:39:59.669Z,99.90
2022-11-01T06:42:26.542Z,99.90
2022-11-01T06:44:53.468Z,99.90
2022-11-01T06:47:20.346Z,99.90
2022-11-01T06:49:47.368Z,99.90
2022-11-01T06:52:16.862Z,99.50
2022-11-01T06:54:43.968Z,99.10
2022-11-01T06:57:40.538Z,99.10
2022-11-01T07:00:09.336Z,97.40
2022-11-01T07:02:37.263Z,98.30
2022-11-01T07:05:04.562Z,97.10
2022-11-01T07:07:31.513Z,97.10
2022-11-01T07:09:58.680Z,95.90
2022-11-01T07:12:25.598Z,95.90
2022-11-01T07:14:52.570Z,95.60
2022-11-01T07:17:19.586Z,95.40
2022-11-01T07:19:46.747Z,94.70
2022-11-01T07:22:14.854Z,94.10
2022-11-01T07:24:41.903Z,94.00
2022-11-01T07:27:09.111Z,94.00
2022-11-01T07:29:41.635Z,93.80
2022-11-01T07:32:08.749Z,93.90
2022-11-01T07:34:35.683Z,93.40
2022-11-01T07:37:02.765Z,92.70
2022-11-01T07:39:29.696Z,91.80
2022-11-01T07:41:58.498Z,90.90
2022-11-01T07:44:25.413Z,91.10
2022-11-01T07:46:52.391Z,90.60
2022-11-01T07:49:19.350Z,89.70
2022-11-01T07:51:46.264Z,89.40
2022-11-01T07:54:13.393Z,89.90
2022-11-01T07:56:40.649Z,90.30
2022-11-01T07:59:09.527Z,90.40
2022-11-01T08:01:36.865Z,90.60
2022-11-01T08:04:03.969Z,90.10
2022-11-01T08:06:31.107Z,87.80
2022-11-01T08:08:58.377Z,88.00
2022-11-01T08:11:25.410Z,90.00
2022-11-01T08:13:52.483Z,90.30
2022-11-01T08:16:19.508Z,90.30
2022-11-01T08:18:46.528Z,90.80
2022-11-01T08:21:18.841Z,91.00
2022-11-01T08:23:46.496Z,91.00
2022-11-01T08:26:13.712Z,91.20
2022-11-01T08:28:40.678Z,90.70
2022-11-01T08:31:09.567Z,90.10
2022-11-01T08:33:36.732Z,89.70
2022-11-01T08:36:03.881Z,90.40
2022-11-01T08:38:30.793Z,90.60
2022-11-01T08:40:59.713Z,89.70
2022-11-01T08:43:26.981Z,89.00
2022-11-01T08:45:53.919Z,88.60
2022-11-01T08:48:20.971Z,89.30
2022-11-01T08:50:48.311Z,88.20
2022-11-01T08:53:15.466Z,88.40
2022-11-01T08:55:42.508Z,89.30
2022-11-01T08:58:09.768Z,89.40
2022-11-01T09:00:36.915Z,88.80
2022-11-01T09:03:04.263Z,87.00
2022-11-01T09:05:31.640Z,87.10
2022-11-01T09:08:00.415Z,87.80
2022-11-01T09:10:29.339Z,87.90
2022-11-01T09:12:57.111Z,87.30
2022-11-01T09:15:24.519Z,86.60
2022-11-01T09:17:51.592Z,84.10
2022-11-01T09:20:19.043Z,79.80
2022-11-01T09:22:52.557Z,75.50
2022-11-01T09:25:19.762Z,71.30
2022-11-01T09:27:46.916Z,73.50
2022-11-01T09:30:14.258Z,70.20
2022-11-01T09:32:41.212Z,69.40
2022-11-01T09:35:09.057Z,70.10
2022-11-01T09:37:36.012Z,68.40
2022-11-01T09:40:03.628Z,67.90
2022-11-01T09:42:35.854Z,67.80
2022-11-01T09:45:17.494Z,69.10
2022-11-01T09:47:48.950Z,70.60
2022-11-01T09:50:26.952Z,72.60
2022-11-01T09:52:55.506Z,72.60
2022-11-01T09:55:46.831Z,71.00
2022-11-01T09:58:19.856Z,67.30
2022-11-01T10:01:15.941Z,68.70
2022-11-01T10:04:10.038Z,65.60
2022-11-01T10:06:43.500Z,65.00
2022-11-01T10:09:38.532Z,64.50
2022-11-01T10:12:35.261Z,62.70
2022-11-01T10:15:28.562Z,61.10
2022-11-01T10:17:59.006Z,61.70
2022-11-01T10:20:33.014Z,61.40
2022-11-01T10:23:03.064Z,62.20
2022-11-01T10:25:33.772Z,64.10
2022-11-01T10:28:39.878Z,61.90
2022-11-01T10:31:14.375Z,62.80
2022-11-01T10:33:57.240Z,64.60
2022-11-01T10:36:31.176Z,65.30
2022-11-01T10:41:52.399Z,64.80
2022-11-01T10:44:36.002Z,64.40
2022-11-01T10:47:07.198Z,62.70
2022-11-01T10:50:00.547Z,64.60
2022-11-01T10:52:32.429Z,65.10
2022-11-01T10:55:02.289Z,67.20
2022-11-01T10:57:41.912Z,70.00
2022-11-01T11:00:16.163Z,73.00
2022-11-01T11:02:54.225Z,75.30
2022-11-01T11:05:22.399Z,77.10
2022-11-01T11:07:49.386Z,78.40
2022-11-01T11:10:27.102Z,79.40
2022-11-01T11:13:03.069Z,81.00
2022-11-01T11:15:47.979Z,82.50
2022-11-01T11:18:39.496Z,84.30
2022-11-01T11:21:09.407Z,85.50
2022-11-01T11:23:42.388Z,86.10
2022-11-01T11:26:13.584Z,87.30
2022-11-01T11:28:46.135Z,87.10
2022-11-01T11:31:28.756Z,87.30
2022-11-01T11:34:16.303Z,87.30
2022-11-01T11:36:48.136Z,87.40
2022-11-01T11:39:26.541Z,87.60
2022-11-01T11:41:53.787Z,87.60
2022-11-01T11:44:43.180Z,87.30
2022-11-01T11:47:28.455Z,85.80
2022-11-01T11:49:58.391Z,83.90
2022-11-01T11:52:38.409Z,83.90
2022-11-01T11:55:25.383Z,84.50
2022-11-01T11:57:54.545Z,81.70
2022-11-01T12:00:29.775Z,76.10
2022-11-01T12:03:00.537Z,68.90
2022-11-01T12:05:28.833Z,67.20
2022-11-01T12:07:57.195Z,66.00
2022-11-01T12:10:34.553Z,65.30
2022-11-01T12:13:04.314Z,63.20
2022-11-01T12:15:41.274Z,63.20
2022-11-01T12:18:17.403Z,62.30
2022-11-01T12:20:50.734Z,63.90
2022-11-01T12:23:28.863Z,62.20
2022-11-01T12:25:59.934Z,59.90
2022-11-01T12:28:35.687Z,59.60
2022-11-01T12:31:19.761Z,59.40
2022-11-01T12:34:24.789Z,60.00
2022-11-01T12:37:04.421Z,58.80
2022-11-01T12:39:53.532Z,59.50
2022-11-01T12:42:28.691Z,59.20
2022-11-01T12:45:26.936Z,58.50
2022-11-01T12:47:59.527Z,59.00
2022-11-01T12:50:37.207Z,61.00
2022-11-01T12:53:29.367Z,62.30
2022-11-01T12:55:58.737Z,60.10
2022-11-01T12:58:28.948Z,59.50
2022-11-01T13:00:59.065Z,58.40
2022-11-01T13:04:13.525Z,56.20
2022-11-01T13:06:48.977Z,56.20
2022-11-01T13:09:21.613Z,57.10
2022-11-01T13:12:14.009Z,57.00
2022-11-01T13:14:50.055Z,56.00
2022-11-01T13:17:43.272Z,55.00
2022-11-01T13:20:31.059Z,55.70
2022-11-01T13:23:08.451Z,55.10
2022-11-01T13:25:43.486Z,54.80
2022-11-01T13:28:42.369Z,55.10
2022-11-01T13:31:19.759Z,54.60
2022-11-01T13:33:53.590Z,53.90
2022-11-01T13:36:28.703Z,54.20
2022-11-01T13:39:22.193Z,53.80
2022-11-01T13:42:06.979Z,53.50
2022-11-01T13:44:40.362Z,53.30
2022-11-01T13:47:16.598Z,54.00
2022-11-01T13:50:21.358Z,53.30
2022-11-01T13:53:04.448Z,52.80
2022-11-01T13:55:43.906Z,55.10
2022-11-01T13:58:20.051Z,57.40
2022-11-01T14:00:50.273Z,58.40
2022-11-01T14:03:32.726Z,59.40
2022-11-01T14:06:11.547Z,61.30
2022-11-01T14:08:49.563Z,62.40
2022-11-01T14:11:41.269Z,63.50
2022-11-01T14:14:46.748Z,64.50
2022-11-01T14:17:16.607Z,65.00
2022-11-01T14:19:45.002Z,65.40
2022-11-01T14:22:33.251Z,65.70
2022-11-01T14:25:03.182Z,66.90
2022-11-01T14:27:38.494Z,66.90
2022-11-01T14:30:23.571Z,66.80
2022-11-01T14:32:59.657Z,67.60
2022-11-01T14:35:30.653Z,68.60
2022-11-01T14:38:05.513Z,69.30
2022-11-01T14:40:41.556Z,70.00
2022-11-01T14:43:23.799Z,70.30
2022-11-01T14:46:06.575Z,71.10
2022-11-01T14:48:45.501Z,71.40
2022-11-01T14:51:57.214Z,72.20
2022-11-01T14:54:43.003Z,73.60
2022-11-01T14:57:26.316Z,73.40
2022-11-01T14:59:55.464Z,74.30
2022-11-01T15:02:24.249Z,73.50
2022-11-01T15:05:00.868Z,73.80
2022-11-01T15:07:40.314Z,75.00
2022-11-01T15:10:13.608Z,75.10
2022-11-01T15:12:58.614Z,75.60
2022-11-01T15:15:33.456Z,77.10
2022-11-01T15:18:07.150Z,77.30
2022-11-01T15:20:41.420Z,78.40
2022-11-01T15:23:10.106Z,79.50
2022-11-01T15:25:37.559Z,80.70
2022-11-01T15:28:05.474Z,80.40
2022-11-01T15:30:34.399Z,81.20
2022-11-01T15:33:25.859Z,82.10
2022-11-01T15:36:03.000Z,83.00
2022-11-01T15:38:34.094Z,83.50
2022-11-01T15:41:25.506Z,83.80
2022-11-01T15:43:55.104Z,85.60
2022-11-01T15:46:25.620Z,85.40
2022-11-01T15:48:55.862Z,86.20
2022-11-01T15:51:27.204Z,86.70
2022-11-01T15:54:06.356Z,87.50
2022-11-01T15:56:45.188Z,88.30
2022-11-01T16:00:06.395Z,88.70
2022-11-01T16:02:43.718Z,89.60
2022-11-01T16:05:16.462Z,89.50
2022-11-01T16:07:44.850Z,89.60
2022-11-01T16:10:26.752Z,89.50
2022-11-01T16:12:54.980Z,90.00
2022-11-01T16:15:35.694Z,89.70
2022-11-01T16:18:15.739Z,89.90
2022-11-01T16:20:43.297Z,90.30
2022-11-01T16:23:14.523Z,90.00
2022-11-01T16:25:41.803Z,90.10
2022-11-01T16:28:11.844Z,90.40
2022-11-01T16:30:46.591Z,90.20
2022-11-01T16:33:45.107Z,90.30
2022-11-01T16:36:20.984Z,90.50
2022-11-01T16:38:51.079Z,90.80
2022-11-01T16:41:20.510Z,90.60
2022-11-01T16:43:52.056Z,90.80
2022-11-01T16:46:20.600Z,91.10
2022-11-01T16:48:56.563Z,91.20
2022-11-01T16:51:28.128Z,91.50
2022-11-01T16:53:56.512Z,91.60
2022-11-01T16:56:37.737Z,91.70
2022-11-01T16:59:15.285Z,92.00
2022-11-01T17:01:46.261Z,92.00
2022-11-01T17:04:14.493Z,92.10
2022-11-01T17:06:41.567Z,92.40
2022-11-01T17:09:17.621Z,92.40
2022-11-01T17:11:50.763Z,92.70
2022-11-01T17:14:19.692Z,92.80
2022-11-01T17:16:48.132Z,92.80
2022-11-01T17:19:31.327Z,92.90
2022-11-01T17:22:11.591Z,93.10
2022-11-01T17:24:38.938Z,93.30
2022-11-01T17:27:06.165Z,93.30
2022-11-01T17:29:33.685Z,93.70
2022-11-01T17:32:08.921Z,93.40
2022-11-01T17:34:36.688Z,93.60
2022-11-01T17:37:04.582Z,93.70
2022-11-01T17:39:31.798Z,93.80
2022-11-01T17:41:59.467Z,93.90
2022-11-01T17:44:27.059Z,94.00
2022-11-01T17:46:54.216Z,94.00
2022-11-01T17:49:21.731Z,94.00
2022-11-01T17:51:54.212Z,94.10
2022-11-01T17:54:22.705Z,94.10
2022-11-01T17:56:51.215Z,94.20
2022-11-01T17:59:18.739Z,94.20
2022-11-01T18:01:45.753Z,94.20
2022-11-01T18:04:12.882Z,94.20
2022-11-01T18:06:42.695Z,94.20
2022-11-01T18:09:24.266Z,94.20
2022-11-01T18:12:24.088Z,94.30
2022-11-01T18:15:02.911Z,94.20
2022-11-01T18:17:29.738Z,94.20
2022-11-01T18:20:36.298Z,94.20
2022-11-01T18:23:10.999Z,94.40
2022-11-01T18:25:47.419Z,94.40
2022-11-01T18:28:18.606Z,94.50
2022-11-01T18:30:59.504Z,94.60
2022-11-01T18:33:38.459Z,94.60
2022-11-01T18:36:16.089Z,94.70
2022-11-01T18:38:56.427Z,94.80
2022-11-01T18:41:23.418Z,95.20
2022-11-01T18:43:54.356Z,95.00
2022-11-01T18:46:27.371Z,95.10
2022-11-01T18:49:02.359Z,95.10
2022-11-01T18:51:36.930Z,95.40
2022-11-01T18:54:23.334Z,95.30
2022-11-01T18:57:12.367Z,95.50
2022-11-01T18:59:40.047Z,95.50
2022-11-01T19:02:28.055Z,95.20
2022-11-01T19:05:17.271Z,95.40
2022-11-01T19:10:42.334Z,95.20
2022-11-01T19:13:22.310Z,95.20
2022-11-01T19:15:54.048Z,95.20
2022-11-01T19:18:23.471Z,95.20
2022-11-01T19:20:58.661Z,95.10
2022-11-01T19:23:38.719Z,95.10
2022-11-01T19:26:30.741Z,95.20
2022-11-01T19:28:58.845Z,95.30
2022-11-01T19:31:36.882Z,95.10
2022-11-01T19:34:10.930Z,95.20
2022-11-01T19:39:38.367Z,95.70
2022-11-01T19:42:26.806Z,95.50
2022-11-01T19:45:02.720Z,95.40
2022-11-01T19:47:38.069Z,95.40
2022-11-01T19:50:24.321Z,95.40
2022-11-01T19:52:53.297Z,95.40
2022-11-01T19:55:41.195Z,95.30
2022-11-01T19:58:30.866Z,95.30
2022-11-01T20:01:02.939Z,95.10
2022-11-01T20:03:44.341Z,95.00
2022-11-01T20:06:20.142Z,94.90
2022-11-01T20:08:51.515Z,94.70
2022-11-01T20:11:18.549Z,94.60
2022-11-01T20:13:45.530Z,94.50
2022-11-01T20:16:12.534Z,94.40
2022-11-01T20:18:39.545Z,94.40
2022-11-01T20:21:06.899Z,94.50
2022-11-01T20:23:34.598Z,94.60
2022-11-01T20:26:03.820Z,94.70
2022-11-01T20:28:31.174Z,94.70
2022-11-01T20:30:58.711Z,94.90
2022-11-01T20:33:25.987Z,94.90
2022-11-01T20:35:52.908Z,94.90
2022-11-01T20:40:47.103Z,94.90
2022-11-01T20:43:17.242Z,95.00
2022-11-01T20:45:44.155Z,95.00
2022-11-01T20:48:11.069Z,95.00
2022-11-01T20:50:38.135Z,95.00
2022-11-01T20:53:06.438Z,95.00
2022-11-01T20:55:33.946Z,95.00
2022-11-01T20:58:01.315Z,94.90
2022-11-01T21:00:28.415Z,94.80
2022-11-01T21:02:57.276Z,94.80
2022-11-01T21:05:29.214Z,94.80
2022-11-01T21:08:14.847Z,94.80
2022-11-01T21:10:43.168Z,94.90
2022-11-01T21:13:27.755Z,94.90
2022-11-01T21:15:59.990Z,95.00
2022-11-01T21:18:33.980Z,95.00
2022-11-01T21:21:11.517Z,95.00
2022-11-01T21:23:39.751Z,95.10
2022-11-01T21:26:15.473Z,95.00
2022-11-01T21:28:45.235Z,95.10
2022-11-01T21:31:15.166Z,95.10
2022-11-01T21:33:44.361Z,95.20
2022-11-01T21:36:26.450Z,95.20
2022-11-01T21:38:57.731Z,95.10
2022-11-01T21:41:33.561Z,95.00
2022-11-01T21:44:30.910Z,95.00
2022-11-01T21:47:10.269Z,95.00
2022-11-01T21:49:37.854Z,95.20
2022-11-01T21:52:07.452Z,95.10
2022-11-01T21:54:36.199Z,95.10
2022-11-01T21:57:05.525Z,95.20
2022-11-01T21:59:32.747Z,95.10
2022-11-01T22:02:03.577Z,95.10
2022-11-01T22:04:32.293Z,95.20
2022-11-01T22:07:03.918Z,95.20
2022-11-01T22:09:31.694Z,95.30
2022-11-01T22:12:02.010Z,95.30
2022-11-01T22:14:29.098Z,95.40
2022-11-01T22:16:57.007Z,95.30
2022-11-01T22:19:24.303Z,95.40
2022-11-01T22:21:51.441Z,95.30
2022-11-01T22:24:18.501Z,95.30
2022-11-01T22:26:45.537Z,95.40
2022-11-01T22:29:12.531Z,95.30
2022-11-01T22:31:39.694Z,95.40
2022-11-01T22:34:06.584Z,95.50
2022-11-01T22:36:38.633Z,95.50
2022-11-01T22:39:20.969Z,95.80
2022-11-01T22:41:48.614Z,96.40
2022-11-01T22:44:25.582Z,96.10
2022-11-01T22:46:58.977Z,96.10
2022-11-01T22:49:45.639Z,96.10
2022-11-01T22:52:32.852Z,96.40
2022-11-01T22:55:17.225Z,96.40
2022-11-01T22:57:54.723Z,96.70
2022-11-01T23:00:30.323Z,97.00
2022-11-01T23:03:21.226Z,97.10
2022-11-01T23:05:51.642Z,97.20
2022-11-01T23:08:27.917Z,97.50
2022-11-01T23:10:55.062Z,97.40
2022-11-01T23:13:51.118Z,97.50
2022-11-01T23:16:41.609Z,97.90
2022-11-01T23:19:12.173Z,98.10
2022-11-01T23:21:39.353Z,98.20
2022-11-01T23:24:09.433Z,98.30
2022-11-01T23:26:36.324Z,98.70
2022-11-01T23:29:03.355Z,98.50
2022-11-01T23:31:30.303Z,98.70
2022-11-01T23:33:57.290Z,98.70
2022-11-01T23:36:33.858Z,98.80
2022-11-01T23:39:12.757Z,99.00
2022-11-01T23:41:46.371Z,99.00
2022-11-01T23:44:39.587Z,99.10
2022-11-01T23:47:20.394Z,99.30
2022-11-01T23:49:57.301Z,99.90
2022-11-01T23:52:43.578Z,99.90
2022-11-01T23:55:25.959Z,99.90
2022-11-01T23:57:54.997Z,99.90
